Time;durP1;ratioP1;P1;durP2;ratioP2;P2;SDS_P1;SDS_P2;PMS_P1;PMS_P2;Temp;Humidity;BMP_temperature;BMP_pressure;BME280_temperature;BME280_humidity;BME280_pressure;Samples;Min_cycle;Max_cycle;Signal;HPM_P1;HPM_P2
2021/07/12 00:01:47;;;;;;;9.35;7.85;;;;;;;20.79;73.18;99591.08;1747270;82;21450;-67
2021/07/12 00:04:15;;;;;;;9.23;8.20;;;;;;;20.68;73.53;99581.61;1745504;82;21207;-67
2021/07/12 00:06:42;;;;;;;9.95;7.53;;;;;;;20.63;73.82;99588.72;1747093;82;21626;-67
2021/07/12 00:09:08;;;;;;;9.25;6.97;;;;;;;20.62;73.85;99584.33;1747525;82;21005;-67
2021/07/12 00:11:35;;;;;;;11.88;7.65;;;;;;;20.64;73.81;99588.97;1748728;81;21030;-67
2021/07/12 00:14:02;;;;;;;10.58;7.25;;;;;;;20.68;73.64;99589.91;1741108;82;21006;-67
2021/07/12 00:16:28;;;;;;;10.90;7.75;;;;;;;20.66;73.53;99588.84;1748967;81;21042;-67
2021/07/12 00:18:54;;;;;;;8.55;7.53;;;;;;;20.61;73.60;99587.70;1752684;82;20973;-67
2021/07/12 00:21:22;;;;;;;8.68;7.72;;;;;;;20.60;73.69;99581.12;1752541;80;21556;-67
2021/07/12 00:23:50;;;;;;;10.32;7.22;;;;;;;20.61;73.72;99586.31;1747628;82;21046;-67
2021/07/12 00:26:18;;;;;;;8.80;7.15;;;;;;;20.65;73.74;99583.67;1747361;81;21034;-67
2021/07/12 00:28:45;;;;;;;10.98;7.45;;;;;;;20.66;73.63;99575.59;1747574;82;21034;-67
2021/07/12 00:31:13;;;;;;;10.68;8.20;;;;;;;20.64;73.66;99581.48;1726541;82;21059;-67
2021/07/12 00:33:41;;;;;;;9.83;7.25;;;;;;;20.57;73.95;99583.19;1720758;82;21027;-67
2021/07/12 00:36:09;;;;;;;10.28;7.42;;;;;;;20.50;74.22;99585.70;1743956;82;21067;-66
2021/07/12 00:38:38;;;;;;;8.70;7.60;;;;;;;20.47;74.36;99583.63;1747255;82;21030;-67
2021/07/12 00:41:06;;;;;;;8.63;6.97;;;;;;;20.46;74.53;99580.61;1746742;81;21135;-67
2021/07/12 00:43:35;;;;;;;10.72;7.22;;;;;;;20.48;74.60;99579.69;1748500;82;20999;-67
2021/07/12 00:46:02;;;;;;;9.95;7.35;;;;;;;20.50;74.60;99585.70;1702781;83;21076;-67
2021/07/12 00:48:33;;;;;;;10.10;8.28;;;;;;;20.50;74.64;99579.59;1717766;82;21489;-67
2021/07/12 00:50:57;;;;;;;15.55;8.75;;;;;;;20.50;74.79;99574.64;1747131;82;21042;-66
2021/07/12 00:53:24;;;;;;;9.23;7.70;;;;;;;20.48;74.54;99575.53;1747429;82;20975;-67
2021/07/12 00:55:52;;;;;;;8.93;7.37;;;;;;;20.44;74.40;99578.77;1745540;81;21037;-66
2021/07/12 00:58:23;;;;;;;8.83;7.92;;;;;;;20.35;74.41;99571.37;1738240;82;20994;-66
2021/07/12 01:00:54;;;;;;;9.58;6.95;;;;;;;20.26;74.48;99571.98;1747455;81;21060;-66
2021/07/12 01:03:21;;;;;;;8.88;7.40;;;;;;;20.17;74.48;99564.92;1726229;82;20935;-67
2021/07/12 01:05:49;;;;;;;11.90;7.72;;;;;;;20.08;74.46;99563.64;1747023;81;21679;-67
2021/07/12 01:08:16;;;;;;;8.95;7.30;;;;;;;20.01;74.63;99563.94;1748172;82;20927;-67
2021/07/12 01:11:26;;;;;;;9.85;8.20;;;;;;;19.96;74.89;99569.09;1723658;82;21089;-67
2021/07/12 01:14:13;;;;;;;11.55;8.48;;;;;;;19.93;75.17;99568.95;1747528;82;21006;-67
2021/07/12 01:17:26;;;;;;;10.43;8.70;;;;;;;19.88;75.60;99568.01;1746872;82;21055;-67
2021/07/12 01:20:23;;;;;;;12.13;8.73;;;;;;;19.88;75.83;99558.91;1687941;83;21588;-67
2021/07/12 01:23:05;;;;;;;9.15;8.20;;;;;;;19.94;75.79;99563.67;1724016;82;21564;-66
2021/07/12 01:26:16;;;;;;;10.68;9.03;;;;;;;19.99;75.85;99567.03;1749021;82;21027;-67
2021/07/12 01:28:48;;;;;;;12.60;8.68;;;;;;;20.01;75.58;99564.75;1746736;82;20987;-66
2021/07/12 01:31:54;;;;;;;10.63;8.68;;;;;;;20.05;75.39;99560.74;1707267;84;21083;-66
2021/07/12 01:34:55;;;;;;;10.90;8.45;;;;;;;20.06;75.27;99565.09;1693072;84;20973;-66
2021/07/12 01:37:40;;;;;;;10.15;9.13;;;;;;;19.98;75.19;99555.73;1712132;83;21015;-67
2021/07/12 01:40:19;;;;;;;11.93;9.35;;;;;;;20.02;75.19;99566.34;1709617;83;21585;-66
2021/07/12 01:43:02;;;;;;;11.73;9.60;;;;;;;20.00;75.24;99563.12;1649676;85;21583;-67
2021/07/12 01:45:42;;;;;;;9.95;8.95;;;;;;;19.98;75.26;99571.53;1720986;82;21551;-67
2021/07/12 01:48:12;;;;;;;10.18;9.10;;;;;;;19.98;75.17;99563.23;1675402;84;21619;-66
2021/07/12 01:50:56;;;;;;;10.20;9.10;;;;;;;19.99;75.11;99566.22;1682801;84;21047;-66
2021/07/12 01:53:56;;;;;;;10.72;9.48;;;;;;;19.99;75.09;99567.03;1694429;84;21045;-67
2021/07/12 01:56:33;;;;;;;10.82;9.73;;;;;;;19.99;75.05;99555.98;1641443;86;21052;-67
2021/07/12 01:59:10;;;;;;;12.45;9.80;;;;;;;19.98;75.13;99560.48;1748024;82;20998;-66
2021/07/12 02:01:38;;;;;;;11.10;9.90;;;;;;;19.95;75.35;99563.32;1718678;82;21035;-66
2021/07/12 02:04:05;;;;;;;13.25;10.35;;;;;;;20.00;75.31;99571.42;1749056;82;21004;-66
2021/07/12 02:06:39;;;;;;;10.68;9.58;;;;;;;20.05;75.27;99569.81;1744740;82;21023;-65
2021/07/12 02:09:11;;;;;;;11.43;10.08;;;;;;;20.10;75.17;99568.23;1744706;82;21549;-65
2021/07/12 02:11:44;;;;;;;12.82;10.03;;;;;;;20.15;75.01;99580.48;1731721;82;21087;-66
2021/07/12 02:14:21;;;;;;;12.80;11.40;;;;;;;20.19;74.89;99577.25;1715311;82;21027;-66
2021/07/12 02:16:51;;;;;;;11.88;10.65;;;;;;;20.18;74.29;99584.52;1742038;82;21039;-66
2021/07/12 02:19:18;;;;;;;12.05;10.20;;;;;;;20.18;73.63;99583.94;1745249;82;20991;-65
2021/07/12 02:21:57;;;;;;;11.63;9.83;;;;;;;20.22;73.32;99581.31;1749636;82;21016;-66
2021/07/12 02:24:42;;;;;;;13.00;9.93;;;;;;;20.22;73.52;99582.69;1747986;82;20979;-66
2021/07/12 02:27:09;;;;;;;13.38;9.75;;;;;;;20.24;73.91;99588.67;1712680;82;21604;-66
2021/07/12 02:29:37;;;;;;;12.90;9.68;;;;;;;20.29;74.05;99587.94;1745675;82;21561;-66
2021/07/12 02:32:06;;;;;;;12.33;10.00;;;;;;;20.33;74.11;99580.55;1694935;83;21036;-66
2021/07/12 02:34:34;;;;;;;11.25;9.98;;;;;;;20.32;74.26;99580.91;1692209;83;21019;-66
2021/07/12 02:37:01;;;;;;;12.00;9.90;;;;;;;20.30;74.58;99581.24;1759965;81;21597;-66
2021/07/12 02:39:33;;;;;;;12.82;10.18;;;;;;;20.30;74.96;99578.48;1750759;81;20983;-66
2021/07/12 02:42:02;;;;;;;11.53;9.73;;;;;;;20.28;75.27;99582.17;1738806;82;21023;-66
2021/07/12 02:44:30;;;;;;;12.05;9.88;;;;;;;20.30;75.43;99580.42;1720777;82;20971;-67
2021/07/12 02:46:58;;;;;;;11.00;9.85;;;;;;;20.30;75.60;99571.56;1749801;82;21014;-66
2021/07/12 02:49:25;;;;;;;11.63;9.98;;;;;;;20.30;75.55;99569.38;1749505;82;21516;-66
2021/07/12 02:52:00;;;;;;;13.65;10.30;;;;;;;20.29;75.62;99572.73;1731511;82;21047;-66
2021/07/12 02:54:35;;;;;;;11.12;9.68;;;;;;;20.31;75.65;99565.47;1721045;82;20995;-66
2021/07/12 02:57:04;;;;;;;11.35;9.60;;;;;;;20.32;75.79;99562.38;1747615;82;21018;-66
2021/07/12 02:59:32;;;;;;;13.15;9.53;;;;;;;20.38;75.93;99562.15;1719517;82;20956;-66
2021/07/12 03:01:58;;;;;;;11.48;10.00;;;;;;;20.42;76.12;99568.05;1740783;82;21015;-66
2021/07/12 03:04:25;;;;;;;13.62;10.48;;;;;;;20.49;75.98;99564.72;1746139;82;21478;-66
2021/07/12 03:06:52;;;;;;;13.53;11.15;;;;;;;20.55;75.93;99564.16;1745859;82;21023;-66
2021/07/12 03:09:28;;;;;;;12.15;10.03;;;;;;;20.57;76.12;99559.68;1732746;82;20970;-64
2021/07/12 03:12:00;;;;;;;11.85;10.13;;;;;;;20.65;76.16;99558.78;1726735;82;21018;-66
2021/07/12 03:14:39;;;;;;;11.35;9.70;;;;;;;20.75;76.18;99550.04;1746468;82;21516;-66
2021/07/12 03:17:06;;;;;;;10.70;9.38;;;;;;;20.88;76.12;99549.47;1691483;82;21052;-66
2021/07/12 03:19:36;;;;;;;13.03;10.35;;;;;;;21.03;75.87;99548.22;1709191;84;21656;-66
2021/07/12 03:22:05;;;;;;;12.75;10.18;;;;;;;21.19;75.60;99549.73;1710607;84;21048;-66
2021/07/12 03:24:36;;;;;;;11.30;10.10;;;;;;;21.30;75.33;99547.55;1673383;84;20980;-66
2021/07/12 03:27:03;;;;;;;11.90;10.70;;;;;;;21.41;74.74;99545.69;1722110;82;21168;-66
2021/07/12 03:29:31;;;;;;;13.62;10.32;;;;;;;21.50;74.32;99557.46;1717169;82;21496;-67
2021/07/12 03:31:58;;;;;;;12.95;11.55;;;;;;;21.60;73.83;99556.98;1664963;85;21151;-66
2021/07/12 03:34:27;;;;;;;12.75;11.45;;;;;;;21.66;73.40;99556.39;1704509;83;21401;-67
2021/07/12 03:36:54;;;;;;;15.18;11.03;;;;;;;21.69;73.01;99568.72;1720748;82;21040;-66
2021/07/12 03:39:22;;;;;;;12.53;10.98;;;;;;;21.77;72.68;99565.02;1721955;82;21019;-66
2021/07/12 03:41:50;;;;;;;11.97;10.72;;;;;;;21.83;72.15;99559.45;1720598;82;21124;-66
2021/07/12 03:44:18;;;;;;;10.63;9.50;;;;;;;21.85;72.26;99559.92;1693898;82;21048;-67
2021/07/12 03:46:45;;;;;;;12.15;10.95;;;;;;;21.90;71.87;99549.16;1714422;83;21064;-66
2021/07/12 03:49:16;;;;;;;12.78;10.03;;;;;;;21.90;71.75;99549.16;1722973;83;20991;-67
2021/07/12 03:51:47;;;;;;;15.05;9.78;;;;;;;21.91;71.71;99546.65;1722102;82;21050;-66
2021/07/12 03:54:14;;;;;;;12.50;9.90;;;;;;;21.93;71.54;99547.12;1704474;83;21019;-66
2021/07/12 03:56:41;;;;;;;11.12;10.03;;;;;;;21.97;71.26;99543.84;1720959;82;21061;-66
2021/07/12 03:59:07;;;;;;;11.70;10.45;;;;;;;22.02;71.23;99549.16;1722250;83;20980;-66
2021/07/12 04:01:34;;;;;;;13.13;10.75;;;;;;;22.05;71.13;99545.67;1721086;82;21055;-66
2021/07/12 04:04:01;;;;;;;11.22;9.95;;;;;;;22.04;71.05;99546.83;1721704;83;21019;-66
2021/07/12 04:06:30;;;;;;;11.60;10.40;;;;;;;22.07;71.04;99551.09;1720230;82;21117;-66
2021/07/12 04:08:57;;;;;;;13.88;11.45;;;;;;;22.15;70.94;99544.59;1720903;83;21052;-67
2021/07/12 04:11:29;;;;;;;13.00;10.90;;;;;;;22.29;70.82;99546.38;1721054;82;21048;-67
2021/07/12 04:13:52;;;;;;;12.70;11.40;;;;;;;22.43;70.54;99547.92;1720115;83;21613;-67
2021/07/12 04:16:18;;;;;;;14.38;10.85;;;;;;;22.58;70.39;99541.03;1721695;82;21046;-66
2021/07/12 04:18:45;;;;;;;11.88;10.68;;;;;;;22.77;70.08;99550.89;1721201;83;21598;-67
2021/07/12 04:21:12;;;;;;;12.78;10.38;;;;;;;22.97;69.32;99557.33;1693367;83;21080;-67
2021/07/12 04:23:38;;;;;;;13.13;10.78;;;;;;;23.12;68.80;99550.16;1695407;83;21004;-67
2021/07/12 04:26:05;;;;;;;12.30;11.10;;;;;;;23.19;68.31;99547.56;1723562;82;21033;-66
2021/07/12 04:28:31;;;;;;;11.55;10.05;;;;;;;23.25;68.35;99547.50;1742180;82;20978;-67
2021/07/12 04:30:58;;;;;;;11.60;10.10;;;;;;;23.38;68.37;99539.88;1725682;82;21062;-66
2021/07/12 04:33:25;;;;;;;15.75;10.45;;;;;;;23.50;68.16;99538.39;1737034;82;21508;-67
2021/07/12 04:35:52;;;;;;;12.78;10.53;;;;;;;23.61;67.78;99538.05;1722943;82;21493;-67
2021/07/12 04:38:18;;;;;;;12.18;10.90;;;;;;;23.69;67.43;99530.91;1747544;82;21002;-66
2021/07/12 04:40:45;;;;;;;12.55;11.25;;;;;;;23.71;67.13;99527.16;1746937;81;21054;-66
2021/07/12 04:43:11;;;;;;;23.77;10.15;;;;;;;23.86;67.08;99539.40;1748281;81;21015;-67
2021/07/12 04:45:39;;;;;;;11.90;9.85;;;;;;;24.04;66.70;99549.50;1747021;82;21066;-65
2021/07/12 04:48:06;;;;;;;12.43;11.22;;;;;;;24.10;66.29;99558.56;1752195;82;21436;-67
2021/07/12 04:50:33;;;;;;;12.65;11.03;;;;;;;24.10;67.19;99561.93;1724213;82;21576;-66
2021/07/12 04:52:59;;;;;;;12.05;10.80;;;;;;;24.10;67.19;99561.93;1747589;82;21027;-67
2021/07/12 04:55:26;;;;;;;13.40;10.68;;;;;;;24.19;67.07;99560.59;1747886;82;21577;-67
2021/07/12 04:57:53;;;;;;;10.78;9.70;;;;;;;24.14;67.55;99555.31;1753015;82;21481;-66
2021/07/12 05:00:20;;;;;;;14.58;10.30;;;;;;;24.14;67.55;99555.31;1750620;82;21019;-68
2021/07/12 05:02:47;;;;;;;14.05;9.68;;;;;;;23.86;68.01;99553.30;1751812;82;21508;-66
2021/07/12 05:05:14;;;;;;;10.63;9.10;;;;;;;23.85;68.34;99555.84;1751160;82;21070;-66
2021/07/12 05:07:41;;;;;;;13.22;10.13;;;;;;;23.85;68.34;99555.84;1747253;82;20995;-66
2021/07/12 05:10:09;;;;;;;10.88;9.70;;;;;;;23.77;68.20;99561.83;1747532;81;21594;-67
2021/07/12 05:12:35;;;;;;;11.20;10.00;;;;;;;23.65;68.42;99559.77;1750577;82;20998;-66
2021/07/12 05:15:01;;;;;;;11.80;10.50;;;;;;;23.65;68.42;99559.77;1747761;81;21663;-64
2021/07/12 05:17:29;;;;;;;12.78;10.10;;;;;;;23.64;68.19;99553.41;1744991;82;21074;-66
2021/07/12 05:19:56;;;;;;;12.73;10.35;;;;;;;23.80;67.73;99546.42;1734743;80;20986;-66
2021/07/12 05:22:25;;;;;;;13.10;9.28;;;;;;;23.80;67.73;99546.42;1748437;81;21030;-66
2021/07/12 05:24:50;;;;;;;16.17;11.08;;;;;;;23.86;67.50;99542.75;1745496;81;20947;-67
2021/07/12 05:27:18;;;;;;;12.70;10.70;;;;;;;23.94;67.34;99563.41;1759338;81;21068;-67
2021/07/12 05:29:44;;;;;;;12.25;9.88;;;;;;;23.94;67.34;99563.41;1750503;81;21476;-67
2021/07/12 05:32:10;;;;;;;14.07;10.08;;;;;;;24.08;67.29;99555.36;1760807;80;21066;-67
2021/07/12 05:34:38;;;;;;;13.65;10.50;;;;;;;24.33;67.03;99555.09;1733171;81;20966;-67
2021/07/12 05:37:05;;;;;;;11.85;9.23;;;;;;;24.53;66.26;99555.27;1760738;81;21112;-67
2021/07/12 05:40:47;;;;;;;13.90;10.15;;;;;;;24.86;65.13;99555.52;1792394;79;23060;-65
2021/07/12 05:43:13;;;;;;;13.20;10.15;;;;;;;25.02;64.21;99561.75;1752321;82;21500;-66
2021/07/12 05:45:40;;;;;;;10.60;9.30;;;;;;;25.32;64.28;99561.05;1752659;82;21109;-66
2021/07/12 05:48:08;;;;;;;12.20;9.70;;;;;;;25.68;62.58;99563.23;1750144;81;20987;-67
2021/07/12 05:50:36;;;;;;;9.63;8.63;;;;;;;25.95;61.19;99574.55;1752685;82;21039;-66
2021/07/12 05:53:04;;;;;;;10.40;8.58;;;;;;;26.10;60.66;99586.70;1750347;82;20986;-64
2021/07/12 05:55:32;;;;;;;10.85;9.60;;;;;;;26.17;60.37;99580.66;1724049;82;21058;-66
2021/07/12 05:57:58;;;;;;;12.93;9.45;;;;;;;26.13;60.45;99580.36;1723389;82;21018;-67
2021/07/12 06:00:25;;;;;;;13.10;9.30;;;;;;;26.15;60.50;99593.33;1724982;82;21065;-66
2021/07/12 06:02:51;;;;;;;10.43;9.43;;;;;;;26.08;60.04;99581.49;1678267;85;20983;-66
2021/07/12 06:05:17;;;;;;;11.20;8.35;;;;;;;26.07;60.37;99579.91;1684073;85;21069;-66
2021/07/12 06:07:44;;;;;;;15.38;9.13;;;;;;;26.14;60.19;99581.39;1685032;84;20998;-66
2021/07/12 06:10:11;;;;;;;10.72;8.80;;;;;;;26.18;60.25;99580.07;1683362;84;21038;-65
2021/07/12 06:12:40;;;;;;;12.90;9.50;;;;;;;26.11;59.92;99579.95;1679328;84;21497;-65
2021/07/12 06:15:07;;;;;;;11.85;9.35;;;;;;;26.03;59.89;99584.63;1684287;84;21113;-66
2021/07/12 06:17:34;;;;;;;13.70;9.58;;;;;;;25.98;60.03;99586.34;1669911;84;21749;-65
2021/07/12 06:20:04;;;;;;;11.43;9.40;;;;;;;25.96;60.50;99592.09;1683042;84;21090;-65
2021/07/12 06:22:31;;;;;;;16.10;9.00;;;;;;;25.91;61.11;99588.23;1698039;84;21030;-65
2021/07/12 06:24:57;;;;;;;10.28;9.28;;;;;;;25.88;61.21;99594.56;1688699;84;21529;-65
2021/07/12 06:27:23;;;;;;;10.18;9.15;;;;;;;25.82;61.55;99595.49;1701127;84;21034;-66
2021/07/12 06:29:50;;;;;;;11.93;9.78;;;;;;;25.78;62.03;99596.61;1693175;84;21097;-65
2021/07/12 06:32:17;;;;;;;11.78;8.88;;;;;;;25.87;62.72;99590.97;1680070;84;21062;-66
2021/07/12 06:34:44;;;;;;;13.18;8.68;;;;;;;26.05;62.08;99590.62;1701395;84;21107;-65
2021/07/12 06:37:11;;;;;;;10.00;8.28;;;;;;;26.33;62.30;99578.23;1655756;84;21066;-65
2021/07/12 06:39:39;;;;;;;10.75;9.00;;;;;;;26.60;61.48;99573.59;1681660;84;21119;-65
2021/07/12 06:42:06;;;;;;;9.58;8.68;;;;;;;26.82;61.57;99576.01;1679754;85;21135;-66
2021/07/12 06:44:33;;;;;;;9.73;8.83;;;;;;;27.02;59.92;99580.22;1664057;86;21115;-66
2021/07/12 06:46:59;;;;;;;9.08;8.23;;;;;;;27.18;59.04;99575.74;1722064;82;21095;-66
2021/07/12 06:49:27;;;;;;;10.25;8.63;;;;;;;27.28;59.04;99582.01;1736851;82;21542;-66
2021/07/12 06:51:53;;;;;;;10.85;8.00;;;;;;;27.33;58.59;99577.47;1730051;82;21032;-66
2021/07/12 06:54:20;;;;;;;10.53;8.20;;;;;;;27.44;57.89;99579.75;1709262;83;21087;-66
2021/07/12 06:56:46;;;;;;;9.13;8.23;;;;;;;27.51;56.55;99583.22;1653755;86;21126;-67
2021/07/12 06:59:13;;;;;;;10.53;8.00;;;;;;;27.47;56.04;99587.39;1710382;82;21526;-66
2021/07/12 07:01:41;;;;;;;14.45;8.90;;;;;;;27.42;56.23;99586.31;1725247;82;21027;-66
2021/07/12 07:04:08;;;;;;;11.83;9.00;;;;;;;27.43;57.31;99589.91;1739395;82;21004;-66
2021/07/12 07:06:34;;;;;;;10.03;9.00;;;;;;;27.36;57.56;99594.05;1724065;82;21538;-66
2021/07/12 07:09:01;;;;;;;12.58;9.00;;;;;;;27.27;57.58;99588.81;1709787;84;21056;-66
2021/07/12 07:11:27;;;;;;;10.50;9.40;;;;;;;27.21;57.55;99594.52;1656248;86;21746;-66
2021/07/12 07:13:55;;;;;;;11.43;8.85;;;;;;;27.11;57.95;99593.25;1713276;82;21410;-67
2021/07/12 07:16:21;;;;;;;12.78;8.80;;;;;;;27.02;58.27;99597.56;1664066;86;21664;-66
2021/07/12 07:18:49;;;;;;;10.48;8.65;;;;;;;26.97;58.32;99593.71;1710019;82;21031;-66
2021/07/12 07:21:18;;;;;;;11.10;8.58;;;;;;;26.91;58.04;99596.06;1693754;84;21070;-67
2021/07/12 07:23:44;;;;;;;10.60;8.90;;;;;;;26.89;58.38;99592.84;1736875;82;21419;-67
2021/07/12 07:26:11;;;;;;;9.90;8.45;;;;;;;26.96;58.01;99583.75;1736149;82;21072;-66
2021/07/12 07:28:39;;;;;;;11.33;7.95;;;;;;;27.07;57.65;99590.20;1720002;82;21043;-67
2021/07/12 07:31:06;;;;;;;12.70;8.58;;;;;;;27.11;57.18;99581.27;1739046;82;21087;-66
2021/07/12 07:33:32;;;;;;;11.10;7.65;;;;;;;27.19;57.44;99586.55;1739431;82;21003;-66
2021/07/12 07:35:59;;;;;;;13.78;8.25;;;;;;;27.26;56.91;99588.59;1738092;82;21445;-66
2021/07/12 07:38:26;;;;;;;12.35;8.03;;;;;;;27.33;56.97;99601.81;1713639;82;21032;-67
2021/07/12 07:40:52;;;;;;;9.95;8.00;;;;;;;27.39;56.46;99602.47;1662902;84;21604;-65
2021/07/12 07:43:19;;;;;;;12.65;8.50;;;;;;;27.45;55.85;99603.77;1719486;82;21399;-66
2021/07/12 07:45:46;;;;;;;12.70;8.03;;;;;;;27.50;55.43;99605.37;1720586;82;21075;-66
2021/07/12 07:48:12;;;;;;;11.93;8.20;;;;;;;27.51;55.14;99604.19;1717780;83;21038;-67
2021/07/12 07:50:43;;;;;;;11.35;8.10;;;;;;;27.55;55.46;99596.64;1723642;82;21153;-66
2021/07/12 07:53:10;;;;;;;14.28;8.55;;;;;;;27.59;55.41;99594.67;1717265;83;21176;-66
2021/07/12 07:55:37;;;;;;;12.23;8.10;;;;;;;27.66;55.36;99596.92;1729669;82;21059;-67
2021/07/12 07:58:05;;;;;;;16.20;9.30;;;;;;;27.75;55.93;99600.76;1736536;82;20971;-66
2021/07/12 08:00:31;;;;;;;9.70;8.33;;;;;;;27.85;55.41;99597.22;1729473;82;21048;-67
2021/07/12 08:02:58;;;;;;;10.72;8.25;;;;;;;27.90;55.54;99592.67;1726819;82;21007;-68
2021/07/12 08:05:24;;;;;;;15.32;9.00;;;;;;;27.94;56.08;99590.70;1746377;82;21031;-66
2021/07/12 08:07:50;;;;;;;10.82;8.68;;;;;;;28.02;55.09;99597.14;1740252;82;21023;-67
2021/07/12 08:10:18;;;;;;;19.00;8.53;;;;;;;28.06;55.02;99604.92;1746978;82;21044;-66
2021/07/12 08:12:46;;;;;;;9.43;7.67;;;;;;;28.11;55.40;99599.80;1744033;82;20991;-65
2021/07/12 08:15:13;;;;;;;15.03;8.38;;;;;;;28.19;55.17;99596.45;1739219;82;21051;-67
2021/07/12 08:17:40;;;;;;;12.00;8.20;;;;;;;28.25;55.28;99590.67;1732804;80;21046;-69
2021/07/12 08:20:08;;;;;;;17.23;8.73;;;;;;;28.36;54.65;99597.70;1740108;80;21015;-68
2021/07/12 08:22:36;;;;;;;11.53;8.95;;;;;;;28.43;54.92;99600.53;1727880;80;21043;-68
2021/07/12 08:25:04;;;;;;;13.15;8.35;;;;;;;28.48;54.96;99592.57;1732439;82;21063;-68
2021/07/12 08:27:32;;;;;;;14.33;8.60;;;;;;;28.49;54.27;99588.55;1739391;82;21008;-67
2021/07/12 08:29:59;;;;;;;13.78;8.73;;;;;;;28.44;54.43;99591.75;1728870;82;20976;-66
2021/07/12 08:32:25;;;;;;;10.50;8.40;;;;;;;28.47;54.81;99590.16;1725363;82;21007;-68
2021/07/12 08:34:52;;;;;;;12.20;8.35;;;;;;;28.51;54.55;99578.38;1736886;82;21542;-67
2021/07/12 08:37:19;;;;;;;9.75;7.95;;;;;;;28.51;53.34;99573.58;1724216;80;21015;-66
2021/07/12 08:39:45;;;;;;;9.65;8.13;;;;;;;28.53;53.34;99580.16;1715367;83;21055;-68
2021/07/12 08:42:12;;;;;;;10.15;8.08;;;;;;;28.61;53.77;99587.39;1725534;82;21044;-68
2021/07/12 08:44:39;;;;;;;11.45;8.35;;;;;;;28.69;53.09;99586.26;1720412;82;21532;-68
2021/07/12 08:47:06;;;;;;;12.05;8.18;;;;;;;28.74;52.62;99587.84;1719816;82;21032;-67
2021/07/12 08:49:34;;;;;;;13.78;8.10;;;;;;;28.74;53.44;99591.45;1732452;81;21454;-66
2021/07/12 08:52:02;;;;;;;12.45;7.85;;;;;;;28.83;52.49;99590.48;1654003;85;21047;-67
2021/07/12 08:54:30;;;;;;;12.95;8.03;;;;;;;29.00;51.56;99579.09;1692360;83;21023;-68
2021/07/12 08:56:57;;;;;;;10.72;7.97;;;;;;;29.27;51.99;99586.53;1729623;81;21028;-68
2021/07/12 08:59:32;;;;;;;10.80;8.20;;;;;;;29.58;51.02;99585.73;1723679;82;21459;-70
2021/07/12 09:02:18;;;;;;;12.63;7.70;;;;;;;29.76;50.03;99578.05;1734901;82;21027;-68
2021/07/12 09:04:49;;;;;;;8.48;7.65;;;;;;;29.88;49.40;99586.09;1731544;82;21047;-67
2021/07/12 09:07:26;;;;;;;8.98;7.62;;;;;;;29.92;49.36;99586.89;1716475;82;20952;-68
2021/07/12 09:10:13;;;;;;;10.48;7.72;;;;;;;29.88;49.64;99583.88;1734317;82;21036;-68
2021/07/12 09:12:49;;;;;;;8.68;7.78;;;;;;;29.91;49.44;99578.26;1731121;82;21058;-69
2021/07/12 09:15:20;;;;;;;12.65;7.83;;;;;;;29.82;49.23;99584.88;1719713;82;21075;-68
2021/07/12 09:17:53;;;;;;;8.03;7.30;;;;;;;29.82;49.88;99586.28;1736715;82;21550;-69
2021/07/12 09:20:32;;;;;;;9.00;6.85;;;;;;;30.03;49.59;99589.66;1670612;84;21082;-68
2021/07/12 09:22:59;;;;;;;8.08;7.28;;;;;;;30.23;50.66;99595.59;1734657;82;20996;-68
2021/07/12 09:25:30;;;;;;;9.28;8.20;;;;;;;30.29;49.83;99595.39;1718365;82;21097;-70
2021/07/12 09:27:56;;;;;;;10.58;7.50;;;;;;;30.10;49.47;99591.84;1729312;82;20989;-69
2021/07/12 09:30:23;;;;;;;11.55;8.35;;;;;;;29.98;49.88;99592.27;1659579;86;21051;-68
2021/07/12 09:32:54;;;;;;;12.07;8.25;;;;;;;29.96;49.57;99597.50;1715643;82;21083;-68
2021/07/12 09:35:21;;;;;;;9.28;7.78;;;;;;;30.10;50.60;99600.27;1724880;82;21043;-68
2021/07/12 09:37:58;;;;;;;9.28;7.87;;;;;;;30.35;50.41;99607.19;1663534;86;21033;-67
2021/07/12 09:40:25;;;;;;;9.43;8.10;;;;;;;30.64;50.07;99614.91;1730958;81;21074;-67
2021/07/12 09:42:52;;;;;;;10.95;7.83;;;;;;;30.90;49.46;99621.36;1725218;82;21498;-68
2021/07/12 09:45:23;;;;;;;14.68;8.80;;;;;;;31.14;49.59;99623.06;1743644;81;21019;-66
2021/07/12 09:47:51;;;;;;;12.80;7.87;;;;;;;31.24;49.04;99622.98;1746011;82;21468;-67
2021/07/12 09:50:20;;;;;;;11.80;7.65;;;;;;;31.29;49.01;99616.09;1731050;82;21629;-66
2021/07/12 09:52:54;;;;;;;10.20;8.15;;;;;;;31.38;47.91;99617.84;1723846;82;21034;-67
2021/07/12 09:55:27;;;;;;;8.00;7.20;;;;;;;31.28;48.62;99619.54;1747795;80;21061;-66
2021/07/12 09:58:18;;;;;;;8.35;7.53;;;;;;;31.02;48.58;99615.30;1746685;82;21446;-66
2021/07/12 10:00:54;;;;;;;9.13;7.60;;;;;;;30.75;49.10;99619.06;1729613;82;21074;-67
2021/07/12 10:03:22;;;;;;;10.43;8.10;;;;;;;30.51;49.47;99610.94;1730791;82;20999;-67
2021/07/12 10:05:51;;;;;;;10.88;7.70;;;;;;;30.32;50.13;99611.41;1724976;82;21102;-67
2021/07/12 10:08:17;;;;;;;10.45;7.47;;;;;;;30.20;49.74;99609.84;1727914;82;20979;-66
2021/07/12 10:10:44;;;;;;;8.58;7.70;;;;;;;30.20;50.56;99612.66;1731124;82;21018;-65
2021/07/12 10:13:10;;;;;;;9.28;8.38;;;;;;;30.19;51.11;99610.23;1700740;84;21450;-67
2021/07/12 10:15:37;;;;;;;11.28;8.63;;;;;;;30.15;51.08;99613.69;1741603;82;21042;-66
2021/07/12 10:18:05;;;;;;;10.03;8.28;;;;;;;30.17;50.51;99607.86;1743447;82;20983;-67
2021/07/12 10:20:33;;;;;;;9.43;8.53;;;;;;;30.24;50.63;99608.43;1712706;82;21093;-66
2021/07/12 10:23:02;;;;;;;10.18;8.38;;;;;;;30.38;51.26;99611.18;1723146;83;21553;-66
2021/07/12 10:25:31;;;;;;;13.60;8.28;;;;;;;30.54;51.33;99605.91;1733573;82;21055;-67
2021/07/12 10:28:01;;;;;;;12.37;8.45;;;;;;;30.68;51.52;99614.26;1726451;82;21031;-67
2021/07/12 10:30:31;;;;;;;13.48;8.20;;;;;;;30.82;50.45;99609.19;1742732;82;21054;-67
2021/07/12 10:33:02;;;;;;;11.22;7.72;;;;;;;30.89;51.00;99614.13;1685390;85;20988;-68
2021/07/12 10:35:54;;;;;;;8.68;7.87;;;;;;;30.80;50.98;99607.38;1745709;82;21074;-68
2021/07/12 10:38:46;;;;;;;9.05;8.10;;;;;;;30.75;50.42;99612.05;1737150;82;21004;-68
2021/07/12 10:41:26;;;;;;;10.65;8.38;;;;;;;30.73;50.08;99605.41;1731322;81;21030;-67
2021/07/12 10:43:57;;;;;;;11.33;8.00;;;;;;;30.80;49.32;99600.35;1656078;85;21558;-67
2021/07/12 10:46:31;;;;;;;11.73;8.28;;;;;;;30.77;48.72;99585.72;1734664;82;21041;-66
2021/07/12 10:49:22;;;;;;;11.25;8.18;;;;;;;30.79;49.91;99586.91;1727526;82;21022;-67
2021/07/12 10:51:48;;;;;;;10.23;8.65;;;;;;;30.78;50.54;99586.73;1723004;82;21042;-67
2021/07/12 10:54:14;;;;;;;10.40;7.95;;;;;;;30.69;50.53;99572.92;1749645;82;20987;-67
2021/07/12 10:56:54;;;;;;;8.48;7.40;;;;;;;30.67;49.15;99573.95;1727148;82;21035;-68
2021/07/12 10:59:32;;;;;;;12.50;8.03;;;;;;;30.53;51.93;99569.22;1741408;82;20987;-68
2021/07/12 11:02:03;;;;;;;9.68;7.28;;;;;;;30.25;51.48;99558.91;1745216;82;21114;-68
2021/07/12 11:04:32;;;;;;;9.18;7.70;;;;;;;29.98;50.50;99553.58;1742896;82;20963;-68
2021/07/12 11:07:03;;;;;;;9.95;7.65;;;;;;;29.82;50.61;99543.39;1737550;82;21502;-67
2021/07/12 11:09:53;;;;;;;10.60;7.12;;;;;;;29.72;52.10;99542.83;1730244;82;20942;-68
2021/07/12 11:12:33;;;;;;;9.13;7.75;;;;;;;29.58;52.08;99539.45;1746817;82;21498;-67
2021/07/12 11:15:20;;;;;;;9.80;7.35;;;;;;;29.52;52.51;99527.83;1737862;81;20978;-67
2021/07/12 11:17:58;;;;;;;9.53;7.30;;;;;;;29.49;52.54;99533.45;1742755;82;21003;-67
2021/07/12 11:20:47;;;;;;;8.50;7.62;;;;;;;29.47;53.05;99526.05;1739204;82;21054;-67
2021/07/12 11:23:40;;;;;;;10.00;8.23;;;;;;;29.50;52.49;99523.23;1736212;82;21011;-67
2021/07/12 11:26:27;;;;;;;12.85;7.87;;;;;;;29.54;52.76;99517.03;1737028;82;21161;-68
2021/07/12 11:28:56;;;;;;;8.40;6.92;;;;;;;29.58;52.58;99506.58;1725642;82;21086;-68
2021/07/12 11:31:46;;;;;;;9.70;6.92;;;;;;;29.57;52.47;99502.78;1722714;82;21090;-68
2021/07/12 11:34:20;;;;;;;11.25;8.08;;;;;;;29.52;52.15;99501.19;1732270;82;20995;-68
2021/07/12 11:37:09;;;;;;;8.58;7.20;;;;;;;29.48;51.98;99506.00;1748923;82;21011;-67
2021/07/12 11:39:47;;;;;;;10.08;7.08;;;;;;;29.52;51.94;99501.78;1738355;82;20983;-67
2021/07/12 11:42:33;;;;;;;8.63;6.50;;;;;;;29.46;50.21;99497.20;1732083;82;21019;-67